sensor_id;sensor_type;location;lat;lon;timestamp;P1;durP1;ratioP1;P2;durP2;ratioP2
11046;SDS011;5576;50.008;10.596;2023-12-20T00:00:05;7.83;;;5.83;;
11046;SDS011;5576;50.008;10.596;2023-12-20T00:02:32;10.38;;;6.80;;
11046;SDS011;5576;50.008;10.596;2023-12-20T00:04:57;9.18;;;6.00;;
11046;SDS011;5576;50.008;10.596;2023-12-20T00:07:23;8.33;;;5.60;;
11046;SDS011;5576;50.008;10.596;2023-12-20T00:09:49;9.18;;;6.05;;
11046;SDS011;5576;50.008;10.596;2023-12-20T00:12:15;6.90;;;5.60;;
11046;SDS011;5576;50.008;10.596;2023-12-20T00:14:41;7.78;;;5.85;;
11046;SDS011;5576;50.008;10.596;2023-12-20T00:17:06;8.70;;;5.97;;
11046;SDS011;5576;50.008;10.596;2023-12-20T00:19:33;7.55;;;5.30;;
11046;SDS011;5576;50.008;10.596;2023-12-20T00:21:58;6.87;;;5.30;;
11046;SDS011;5576;50.008;10.596;2023-12-20T00:24:25;6.57;;;5.38;;
11046;SDS011;5576;50.008;10.596;2023-12-20T00:26:50;7.63;;;5.40;;
11046;SDS011;5576;50.008;10.596;2023-12-20T00:29:16;6.38;;;4.93;;
11046;SDS011;5576;50.008;10.596;2023-12-20T00:31:42;7.63;;;4.72;;
11046;SDS011;5576;50.008;10.596;2023-12-20T00:34:08;7.57;;;5.43;;
11046;SDS011;5576;50.008;10.596;2023-12-20T00:36:34;7.38;;;5.13;;
11046;SDS011;5576;50.008;10.596;2023-12-20T00:38:59;5.72;;;4.57;;
11046;SDS011;5576;50.008;10.596;2023-12-20T00:41:25;6.60;;;4.77;;
11046;SDS011;5576;50.008;10.596;2023-12-20T00:43:51;5.88;;;4.25;;
11046;SDS011;5576;50.008;10.596;2023-12-20T00:46:17;5.87;;;4.10;;
11046;SDS011;5576;50.008;10.596;2023-12-20T00:48:42;4.63;;;3.80;;
11046;SDS011;5576;50.008;10.596;2023-12-20T00:51:10;4.67;;;3.50;;
11046;SDS011;5576;50.008;10.596;2023-12-20T00:53:36;4.97;;;3.85;;
11046;SDS011;5576;50.008;10.596;2023-12-20T00:56:02;5.05;;;3.78;;
11046;SDS011;5576;50.008;10.596;2023-12-20T00:58:28;3.97;;;3.30;;
11046;SDS011;5576;50.008;10.596;2023-12-20T01:00:54;3.88;;;3.00;;
11046;SDS011;5576;50.008;10.596;2023-12-20T01:03:19;4.43;;;3.20;;
11046;SDS011;5576;50.008;10.596;2023-12-20T01:05:45;5.10;;;2.92;;
11046;SDS011;5576;50.008;10.596;2023-12-20T01:08:11;3.83;;;2.83;;
11046;SDS011;5576;50.008;10.596;2023-12-20T01:10:37;3.28;;;2.70;;
11046;SDS011;5576;50.008;10.596;2023-12-20T01:13:03;3.47;;;2.97;;
11046;SDS011;5576;50.008;10.596;2023-12-20T01:15:29;3.05;;;2.65;;
11046;SDS011;5576;50.008;10.596;2023-12-20T01:17:55;5.60;;;2.72;;
11046;SDS011;5576;50.008;10.596;2023-12-20T01:20:22;3.42;;;2.70;;
11046;SDS011;5576;50.008;10.596;2023-12-20T01:22:47;3.65;;;2.80;;
11046;SDS011;5576;50.008;10.596;2023-12-20T01:25:13;3.30;;;2.60;;
11046;SDS011;5576;50.008;10.596;2023-12-20T01:27:39;4.53;;;2.85;;
11046;SDS011;5576;50.008;10.596;2023-12-20T01:30:05;2.97;;;2.60;;
11046;SDS011;5576;50.008;10.596;2023-12-20T01:32:31;3.40;;;2.40;;
11046;SDS011;5576;50.008;10.596;2023-12-20T01:34:57;4.00;;;2.78;;
11046;SDS011;5576;50.008;10.596;2023-12-20T01:37:22;3.60;;;2.63;;
11046;SDS011;5576;50.008;10.596;2023-12-20T01:39:50;4.22;;;3.20;;
11046;SDS011;5576;50.008;10.596;2023-12-20T01:42:16;3.73;;;3.00;;
11046;SDS011;5576;50.008;10.596;2023-12-20T01:44:41;4.85;;;3.17;;
11046;SDS011;5576;50.008;10.596;2023-12-20T01:47:07;2.83;;;2.53;;
11046;SDS011;5576;50.008;10.596;2023-12-20T01:49:33;3.53;;;2.80;;
11046;SDS011;5576;50.008;10.596;2023-12-20T01:51:59;3.45;;;2.63;;
11046;SDS011;5576;50.008;10.596;2023-12-20T01:54:25;3.80;;;2.75;;
11046;SDS011;5576;50.008;10.596;2023-12-20T01:56:51;3.90;;;2.67;;
11046;SDS011;5576;50.008;10.596;2023-12-20T01:59:17;2.80;;;2.25;;
11046;SDS011;5576;50.008;10.596;2023-12-20T02:01:45;3.83;;;2.65;;
11046;SDS011;5576;50.008;10.596;2023-12-20T02:04:11;3.80;;;2.50;;
11046;SDS011;5576;50.008;10.596;2023-12-20T02:06:37;4.03;;;2.70;;
11046;SDS011;5576;50.008;10.596;2023-12-20T02:09:05;3.03;;;2.30;;
11046;SDS011;5576;50.008;10.596;2023-12-20T02:11:32;2.50;;;2.20;;
11046;SDS011;5576;50.008;10.596;2023-12-20T02:14:00;3.08;;;2.17;;
11046;SDS011;5576;50.008;10.596;2023-12-20T02:16:26;3.00;;;2.10;;
11046;SDS011;5576;50.008;10.596;2023-12-20T02:18:52;3.78;;;2.00;;
11046;SDS011;5576;50.008;10.596;2023-12-20T02:21:20;2.97;;;2.10;;
11046;SDS011;5576;50.008;10.596;2023-12-20T02:23:50;2.25;;;1.65;;
11046;SDS011;5576;50.008;10.596;2023-12-20T02:26:16;1.77;;;1.63;;
11046;SDS011;5576;50.008;10.596;2023-12-20T02:28:42;2.70;;;1.77;;
11046;SDS011;5576;50.008;10.596;2023-12-20T02:31:08;2.10;;;1.50;;
11046;SDS011;5576;50.008;10.596;2023-12-20T02:33:33;1.90;;;1.70;;
11046;SDS011;5576;50.008;10.596;2023-12-20T02:35:59;2.28;;;1.55;;
11046;SDS011;5576;50.008;10.596;2023-12-20T02:38:25;1.67;;;1.43;;
11046;SDS011;5576;50.008;10.596;2023-12-20T02:40:50;1.63;;;1.35;;
11046;SDS011;5576;50.008;10.596;2023-12-20T02:43:16;1.57;;;1.40;;
11046;SDS011;5576;50.008;10.596;2023-12-20T02:45:42;1.65;;;1.10;;
11046;SDS011;5576;50.008;10.596;2023-12-20T02:48:08;1.47;;;1.20;;
11046;SDS011;5576;50.008;10.596;2023-12-20T02:50:33;1.20;;;1.00;;
11046;SDS011;5576;50.008;10.596;2023-12-20T02:52:59;1.10;;;1.00;;
11046;SDS011;5576;50.008;10.596;2023-12-20T02:55:25;1.08;;;1.00;;
11046;SDS011;5576;50.008;10.596;2023-12-20T02:57:51;1.00;;;0.90;;
11046;SDS011;5576;50.008;10.596;2023-12-20T03:00:16;1.10;;;1.00;;
11046;SDS011;5576;50.008;10.596;2023-12-20T03:02:42;0.80;;;0.80;;
11046;SDS011;5576;50.008;10.596;2023-12-20T03:05:08;0.80;;;0.73;;
11046;SDS011;5576;50.008;10.596;2023-12-20T03:07:34;1.30;;;0.90;;
11046;SDS011;5576;50.008;10.596;2023-12-20T03:10:01;1.05;;;0.85;;
11046;SDS011;5576;50.008;10.596;2023-12-20T03:12:27;1.23;;;0.90;;
11046;SDS011;5576;50.008;10.596;2023-12-20T03:14:53;2.00;;;0.90;;
11046;SDS011;5576;50.008;10.596;2023-12-20T03:17:18;1.07;;;0.90;;
11046;SDS011;5576;50.008;10.596;2023-12-20T03:19:45;0.75;;;0.70;;
11046;SDS011;5576;50.008;10.596;2023-12-20T03:22:11;1.13;;;0.80;;
11046;SDS011;5576;50.008;10.596;2023-12-20T03:24:37;0.70;;;0.70;;
11046;SDS011;5576;50.008;10.596;2023-12-20T03:27:03;0.77;;;0.77;;
11046;SDS011;5576;50.008;10.596;2023-12-20T03:29:29;0.77;;;0.70;;
11046;SDS011;5576;50.008;10.596;2023-12-20T03:31:54;0.90;;;0.70;;
11046;SDS011;5576;50.008;10.596;2023-12-20T03:34:20;3.25;;;1.60;;
11046;SDS011;5576;50.008;10.596;2023-12-20T03:36:46;1.27;;;0.82;;
11046;SDS011;5576;50.008;10.596;2023-12-20T03:39:13;0.70;;;0.70;;
11046;SDS011;5576;50.008;10.596;2023-12-20T03:41:38;0.73;;;0.70;;
11046;SDS011;5576;50.008;10.596;2023-12-20T03:44:04;1.48;;;0.70;;
11046;SDS011;5576;50.008;10.596;2023-12-20T03:46:31;1.10;;;0.68;;
11046;SDS011;5576;50.008;10.596;2023-12-20T03:48:56;0.65;;;0.65;;
11046;SDS011;5576;50.008;10.596;2023-12-20T03:51:22;0.83;;;0.70;;
11046;SDS011;5576;50.008;10.596;2023-12-20T03:53:48;0.73;;;0.63;;
11046;SDS011;5576;50.008;10.596;2023-12-20T03:56:14;0.60;;;0.60;;
11046;SDS011;5576;50.008;10.596;2023-12-20T03:58:39;0.60;;;0.60;;
11046;SDS011;5576;50.008;10.596;2023-12-20T04:01:09;1.53;;;0.80;;
11046;SDS011;5576;50.008;10.596;2023-12-20T04:03:37;0.60;;;0.60;;
11046;SDS011;5576;50.008;10.596;2023-12-20T04:06:03;1.35;;;0.60;;
11046;SDS011;5576;50.008;10.596;2023-12-20T04:08:29;0.70;;;0.57;;
11046;SDS011;5576;50.008;10.596;2023-12-20T04:10:55;0.77;;;0.60;;
11046;SDS011;5576;50.008;10.596;2023-12-20T04:13:21;0.60;;;0.60;;
11046;SDS011;5576;50.008;10.596;2023-12-20T04:15:47;0.63;;;0.63;;
11046;SDS011;5576;50.008;10.596;2023-12-20T04:18:14;0.50;;;0.50;;
11046;SDS011;5576;50.008;10.596;2023-12-20T04:20:40;0.80;;;0.80;;
11046;SDS011;5576;50.008;10.596;2023-12-20T04:23:05;0.60;;;0.60;;
11046;SDS011;5576;50.008;10.596;2023-12-20T04:25:31;0.60;;;0.60;;
11046;SDS011;5576;50.008;10.596;2023-12-20T04:27:57;0.70;;;0.70;;
11046;SDS011;5576;50.008;10.596;2023-12-20T04:30:22;0.60;;;0.60;;
11046;SDS011;5576;50.008;10.596;2023-12-20T04:32:48;0.70;;;0.70;;
11046;SDS011;5576;50.008;10.596;2023-12-20T04:35:14;1.10;;;0.60;;
11046;SDS011;5576;50.008;10.596;2023-12-20T04:37:40;0.70;;;0.70;;
11046;SDS011;5576;50.008;10.596;2023-12-20T04:40:06;0.70;;;0.60;;
11046;SDS011;5576;50.008;10.596;2023-12-20T04:42:33;0.63;;;0.63;;
11046;SDS011;5576;50.008;10.596;2023-12-20T04:44:59;0.93;;;0.70;;
11046;SDS011;5576;50.008;10.596;2023-12-20T04:47:25;0.80;;;0.80;;
11046;SDS011;5576;50.008;10.596;2023-12-20T04:49:50;0.93;;;0.80;;
11046;SDS011;5576;50.008;10.596;2023-12-20T04:52:16;1.20;;;0.70;;
11046;SDS011;5576;50.008;10.596;2023-12-20T04:54:42;0.60;;;0.60;;
11046;SDS011;5576;50.008;10.596;2023-12-20T04:57:07;0.90;;;0.75;;
11046;SDS011;5576;50.008;10.596;2023-12-20T04:59:33;0.77;;;0.77;;
11046;SDS011;5576;50.008;10.596;2023-12-20T05:01:59;0.98;;;0.80;;
11046;SDS011;5576;50.008;10.596;2023-12-20T05:04:25;0.63;;;0.63;;
11046;SDS011;5576;50.008;10.596;2023-12-20T05:06:51;0.70;;;0.70;;
11046;SDS011;5576;50.008;10.596;2023-12-20T05:09:17;0.90;;;0.80;;
11046;SDS011;5576;50.008;10.596;2023-12-20T05:11:42;1.10;;;0.93;;
11046;SDS011;5576;50.008;10.596;2023-12-20T05:14:08;1.90;;;0.80;;
11046;SDS011;5576;50.008;10.596;2023-12-20T05:16:34;1.13;;;0.88;;
11046;SDS011;5576;50.008;10.596;2023-12-20T05:19:00;0.90;;;0.80;;
11046;SDS011;5576;50.008;10.596;2023-12-20T05:21:27;2.40;;;1.20;;
11046;SDS011;5576;50.008;10.596;2023-12-20T05:23:53;1.00;;;0.90;;
11046;SDS011;5576;50.008;10.596;2023-12-20T05:26:18;0.73;;;0.60;;
11046;SDS011;5576;50.008;10.596;2023-12-20T05:28:44;1.00;;;0.90;;
11046;SDS011;5576;50.008;10.596;2023-12-20T05:31:10;1.00;;;0.90;;
11046;SDS011;5576;50.008;10.596;2023-12-20T05:33:36;1.67;;;0.80;;
11046;SDS011;5576;50.008;10.596;2023-12-20T05:36:02;0.90;;;0.77;;
11046;SDS011;5576;50.008;10.596;2023-12-20T05:38:28;1.00;;;0.90;;
11046;SDS011;5576;50.008;10.596;2023-12-20T05:40:54;0.80;;;0.80;;
11046;SDS011;5576;50.008;10.596;2023-12-20T05:43:19;1.17;;;0.90;;
11046;SDS011;5576;50.008;10.596;2023-12-20T05:45:45;1.60;;;1.20;;
11046;SDS011;5576;50.008;10.596;2023-12-20T05:48:11;1.30;;;1.10;;
11046;SDS011;5576;50.008;10.596;2023-12-20T05:50:37;1.03;;;0.93;;
11046;SDS011;5576;50.008;10.596;2023-12-20T05:53:02;1.30;;;1.10;;
11046;SDS011;5576;50.008;10.596;2023-12-20T05:55:29;1.27;;;1.02;;
11046;SDS011;5576;50.008;10.596;2023-12-20T05:57:54;1.20;;;1.10;;
11046;SDS011;5576;50.008;10.596;2023-12-20T06:00:20;1.48;;;0.90;;
11046;SDS011;5576;50.008;10.596;2023-12-20T06:02:46;1.10;;;1.00;;
11046;SDS011;5576;50.008;10.596;2023-12-20T06:05:11;1.17;;;1.00;;
11046;SDS011;5576;50.008;10.596;2023-12-20T06:07:37;1.27;;;1.10;;
11046;SDS011;5576;50.008;10.596;2023-12-20T06:10:03;1.10;;;1.00;;
11046;SDS011;5576;50.008;10.596;2023-12-20T06:12:31;1.73;;;1.38;;
11046;SDS011;5576;50.008;10.596;2023-12-20T06:14:58;1.30;;;1.20;;
11046;SDS011;5576;50.008;10.596;2023-12-20T06:17:24;1.60;;;1.50;;
11046;SDS011;5576;50.008;10.596;2023-12-20T06:19:50;1.60;;;1.20;;
11046;SDS011;5576;50.008;10.596;2023-12-20T06:22:15;1.37;;;1.27;;
11046;SDS011;5576;50.008;10.596;2023-12-20T06:24:41;1.40;;;1.17;;
11046;SDS011;5576;50.008;10.596;2023-12-20T06:27:07;1.25;;;1.15;;
11046;SDS011;5576;50.008;10.596;2023-12-20T06:29:32;1.55;;;1.30;;
11046;SDS011;5576;50.008;10.596;2023-12-20T06:32:00;1.40;;;1.25;;
11046;SDS011;5576;50.008;10.596;2023-12-20T06:34:25;1.60;;;1.20;;
11046;SDS011;5576;50.008;10.596;2023-12-20T06:36:51;1.85;;;1.20;;
11046;SDS011;5576;50.008;10.596;2023-12-20T06:39:17;1.70;;;1.47;;
11046;SDS011;5576;50.008;10.596;2023-12-20T06:41:42;1.50;;;1.40;;
11046;SDS011;5576;50.008;10.596;2023-12-20T06:44:08;1.88;;;1.40;;
11046;SDS011;5576;50.008;10.596;2023-12-20T06:46:34;2.47;;;1.70;;
11046;SDS011;5576;50.008;10.596;2023-12-20T06:49:00;1.50;;;1.40;;
11046;SDS011;5576;50.008;10.596;2023-12-20T06:51:26;1.65;;;1.55;;
11046;SDS011;5576;50.008;10.596;2023-12-20T06:53:52;1.53;;;1.43;;
11046;SDS011;5576;50.008;10.596;2023-12-20T06:56:18;1.70;;;1.60;;
11046;SDS011;5576;50.008;10.596;2023-12-20T06:58:43;1.67;;;1.50;;
11046;SDS011;5576;50.008;10.596;2023-12-20T07:01:11;1.48;;;1.20;;
11046;SDS011;5576;50.008;10.596;2023-12-20T07:03:37;2.80;;;1.60;;
11046;SDS011;5576;50.008;10.596;2023-12-20T07:06:03;1.60;;;1.43;;
11046;SDS011;5576;50.008;10.596;2023-12-20T07:08:29;1.55;;;1.38;;
11046;SDS011;5576;50.008;10.596;2023-12-20T07:10:55;1.85;;;1.30;;
11046;SDS011;5576;50.008;10.596;2023-12-20T07:13:20;1.50;;;1.40;;
11046;SDS011;5576;50.008;10.596;2023-12-20T07:15:47;1.90;;;1.67;;
11046;SDS011;5576;50.008;10.596;2023-12-20T07:18:13;1.95;;;1.42;;
11046;SDS011;5576;50.008;10.596;2023-12-20T07:20:39;1.52;;;1.40;;
11046;SDS011;5576;50.008;10.596;2023-12-20T07:23:04;1.93;;;1.50;;
11046;SDS011;5576;50.008;10.596;2023-12-20T07:25:30;2.47;;;1.52;;
11046;SDS011;5576;50.008;10.596;2023-12-20T07:27:58;2.17;;;1.77;;
11046;SDS011;5576;50.008;10.596;2023-12-20T07:30:23;2.50;;;1.75;;
11046;SDS011;5576;50.008;10.596;2023-12-20T07:32:49;2.33;;;1.80;;
11046;SDS011;5576;50.008;10.596;2023-12-20T07:35:15;1.95;;;1.77;;
11046;SDS011;5576;50.008;10.596;2023-12-20T07:37:41;4.07;;;2.60;;
11046;SDS011;5576;50.008;10.596;2023-12-20T07:40:07;3.33;;;2.50;;
11046;SDS011;5576;50.008;10.596;2023-12-20T07:42:33;4.10;;;2.90;;
11046;SDS011;5576;50.008;10.596;2023-12-20T07:44:59;5.03;;;3.42;;
11046;SDS011;5576;50.008;10.596;2023-12-20T07:47:25;3.20;;;2.70;;
11046;SDS011;5576;50.008;10.596;2023-12-20T07:49:50;3.28;;;2.72;;
11046;SDS011;5576;50.008;10.596;2023-12-20T07:52:17;3.13;;;2.55;;
11046;SDS011;5576;50.008;10.596;2023-12-20T07:54:44;2.67;;;1.90;;
11046;SDS011;5576;50.008;10.596;2023-12-20T07:57:10;3.33;;;2.40;;
11046;SDS011;5576;50.008;10.596;2023-12-20T07:59:36;2.47;;;1.90;;
11046;SDS011;5576;50.008;10.596;2023-12-20T08:02:02;2.10;;;1.90;;
11046;SDS011;5576;50.008;10.596;2023-12-20T08:04:28;2.17;;;1.80;;
11046;SDS011;5576;50.008;10.596;2023-12-20T08:06:54;2.30;;;1.75;;
11046;SDS011;5576;50.008;10.596;2023-12-20T08:09:20;3.10;;;2.15;;
11046;SDS011;5576;50.008;10.596;2023-12-20T08:11:47;2.58;;;2.28;;
11046;SDS011;5576;50.008;10.596;2023-12-20T08:14:13;2.65;;;2.00;;
11046;SDS011;5576;50.008;10.596;2023-12-20T08:16:39;2.60;;;2.03;;
11046;SDS011;5576;50.008;10.596;2023-12-20T08:19:06;2.38;;;1.70;;
11046;SDS011;5576;50.008;10.596;2023-12-20T08:21:32;4.65;;;2.00;;
11046;SDS011;5576;50.008;10.596;2023-12-20T08:23:59;3.67;;;1.98;;
11046;SDS011;5576;50.008;10.596;2023-12-20T08:26:25;4.25;;;2.00;;
11046;SDS011;5576;50.008;10.596;2023-12-20T08:28:51;1.90;;;1.60;;
11046;SDS011;5576;50.008;10.596;2023-12-20T08:31:17;3.05;;;1.92;;
11046;SDS011;5576;50.008;10.596;2023-12-20T08:33:44;3.28;;;1.67;;
11046;SDS011;5576;50.008;10.596;2023-12-20T08:36:12;2.55;;;1.65;;
11046;SDS011;5576;50.008;10.596;2023-12-20T08:38:38;2.47;;;1.83;;
11046;SDS011;5576;50.008;10.596;2023-12-20T08:41:04;3.83;;;1.95;;
11046;SDS011;5576;50.008;10.596;2023-12-20T08:43:31;3.33;;;2.05;;
11046;SDS011;5576;50.008;10.596;2023-12-20T08:45:57;3.17;;;2.00;;
11046;SDS011;5576;50.008;10.596;2023-12-20T08:48:23;2.85;;;2.10;;
11046;SDS011;5576;50.008;10.596;2023-12-20T08:50:49;4.80;;;2.10;;
11046;SDS011;5576;50.008;10.596;2023-12-20T08:53:17;4.47;;;2.42;;
11046;SDS011;5576;50.008;10.596;2023-12-20T08:55:43;4.17;;;2.90;;
11046;SDS011;5576;50.008;10.596;2023-12-20T08:58:09;6.53;;;3.85;;
11046;SDS011;5576;50.008;10.596;2023-12-20T09:00:35;4.00;;;2.45;;
11046;SDS011;5576;50.008;10.596;2023-12-20T09:03:01;6.70;;;3.55;;
11046;SDS011;5576;50.008;10.596;2023-12-20T09:05:28;7.65;;;3.90;;
11046;SDS011;5576;50.008;10.596;2023-12-20T09:07:54;6.70;;;3.65;;
11046;SDS011;5576;50.008;10.596;2023-12-20T09:10:19;5.40;;;3.20;;
11046;SDS011;5576;50.008;10.596;2023-12-20T09:12:48;6.28;;;3.50;;
11046;SDS011;5576;50.008;10.596;2023-12-20T09:15:15;9.05;;;4.15;;
11046;SDS011;5576;50.008;10.596;2023-12-20T09:17:40;8.55;;;4.22;;
11046;SDS011;5576;50.008;10.596;2023-12-20T09:20:07;5.80;;;3.20;;
11046;SDS011;5576;50.008;10.596;2023-12-20T09:22:33;9.80;;;4.45;;
11046;SDS011;5576;50.008;10.596;2023-12-20T09:24:59;6.35;;;3.63;;
11046;SDS011;5576;50.008;10.596;2023-12-20T09:27:27;4.00;;;1.95;;
11046;SDS011;5576;50.008;10.596;2023-12-20T09:29:52;3.20;;;1.70;;
11046;SDS011;5576;50.008;10.596;2023-12-20T09:32:19;3.50;;;1.70;;
11046;SDS011;5576;50.008;10.596;2023-12-20T09:34:47;4.70;;;1.70;;
11046;SDS011;5576;50.008;10.596;2023-12-20T09:37:13;4.38;;;1.73;;
11046;SDS011;5576;50.008;10.596;2023-12-20T09:39:39;3.03;;;1.70;;
11046;SDS011;5576;50.008;10.596;2023-12-20T09:42:05;3.30;;;1.40;;
11046;SDS011;5576;50.008;10.596;2023-12-20T09:44:32;3.55;;;1.58;;
11046;SDS011;5576;50.008;10.596;2023-12-20T09:47:00;5.43;;;1.50;;
11046;SDS011;5576;50.008;10.596;2023-12-20T09:49:29;3.03;;;1.65;;
11046;SDS011;5576;50.008;10.596;2023-12-20T09:51:55;6.33;;;1.60;;
11046;SDS011;5576;50.008;10.596;2023-12-20T09:54:22;3.37;;;1.50;;
11046;SDS011;5576;50.008;10.596;2023-12-20T09:56:48;4.93;;;1.80;;
11046;SDS011;5576;50.008;10.596;2023-12-20T09:59:15;1.90;;;1.27;;
11046;SDS011;5576;50.008;10.596;2023-12-20T10:01:41;3.60;;;1.50;;
11046;SDS011;5576;50.008;10.596;2023-12-20T10:04:10;2.50;;;1.50;;
11046;SDS011;5576;50.008;10.596;2023-12-20T10:06:39;2.75;;;1.40;;
11046;SDS011;5576;50.008;10.596;2023-12-20T10:09:05;2.87;;;1.47;;
11046;SDS011;5576;50.008;10.596;2023-12-20T10:11:31;5.10;;;1.73;;
11046;SDS011;5576;50.008;10.596;2023-12-20T10:13:58;4.40;;;1.50;;
11046;SDS011;5576;50.008;10.596;2023-12-20T10:16:26;3.13;;;1.58;;
11046;SDS011;5576;50.008;10.596;2023-12-20T10:18:53;3.53;;;1.40;;
11046;SDS011;5576;50.008;10.596;2023-12-20T10:21:19;2.10;;;1.50;;
11046;SDS011;5576;50.008;10.596;2023-12-20T10:23:46;3.90;;;1.60;;
11046;SDS011;5576;50.008;10.596;2023-12-20T10:26:19;4.18;;;1.50;;
11046;SDS011;5576;50.008;10.596;2023-12-20T10:28:46;4.63;;;1.70;;
11046;SDS011;5576;50.008;10.596;2023-12-20T10:31:31;3.30;;;1.45;;
11046;SDS011;5576;50.008;10.596;2023-12-20T10:34:01;3.00;;;1.20;;
11046;SDS011;5576;50.008;10.596;2023-12-20T10:36:32;2.75;;;1.00;;
11046;SDS011;5576;50.008;10.596;2023-12-20T10:38:58;2.75;;;1.27;;
11046;SDS011;5576;50.008;10.596;2023-12-20T10:41:25;3.60;;;1.40;;
11046;SDS011;5576;50.008;10.596;2023-12-20T10:43:56;3.00;;;1.30;;
11046;SDS011;5576;50.008;10.596;2023-12-20T10:46:26;4.22;;;1.40;;
11046;SDS011;5576;50.008;10.596;2023-12-20T10:48:54;3.80;;;1.40;;
11046;SDS011;5576;50.008;10.596;2023-12-20T10:51:20;3.85;;;1.45;;
11046;SDS011;5576;50.008;10.596;2023-12-20T10:53:48;2.73;;;1.20;;
11046;SDS011;5576;50.008;10.596;2023-12-20T10:56:16;3.28;;;1.30;;
11046;SDS011;5576;50.008;10.596;2023-12-20T10:58:43;3.28;;;1.50;;
11046;SDS011;5576;50.008;10.596;2023-12-20T11:01:10;6.55;;;1.60;;
11046;SDS011;5576;50.008;10.596;2023-12-20T11:03:42;3.90;;;1.38;;
11046;SDS011;5576;50.008;10.596;2023-12-20T11:06:20;3.00;;;1.00;;
11046;SDS011;5576;50.008;10.596;2023-12-20T11:17:12;2.50;;;1.10;;
11046;SDS011;5576;50.008;10.596;2023-12-20T11:20:03;3.17;;;1.40;;
11046;SDS011;5576;50.008;10.596;2023-12-20T11:22:27;2.15;;;1.08;;
11046;SDS011;5576;50.008;10.596;2023-12-20T11:24:57;3.40;;;1.42;;
11046;SDS011;5576;50.008;10.596;2023-12-20T11:27:28;4.40;;;1.33;;
11046;SDS011;5576;50.008;10.596;2023-12-20T11:29:56;5.27;;;1.40;;
11046;SDS011;5576;50.008;10.596;2023-12-20T11:34:55;3.70;;;1.48;;
11046;SDS011;5576;50.008;10.596;2023-12-20T11:37:21;2.45;;;1.20;;
11046;SDS011;5576;50.008;10.596;2023-12-20T11:39:55;4.03;;;1.50;;
11046;SDS011;5576;50.008;10.596;2023-12-20T11:42:21;4.13;;;1.55;;
11046;SDS011;5576;50.008;10.596;2023-12-20T11:44:47;4.22;;;1.20;;
11046;SDS011;5576;50.008;10.596;2023-12-20T11:47:13;4.15;;;1.75;;
11046;SDS011;5576;50.008;10.596;2023-12-20T11:49:41;4.65;;;2.00;;
11046;SDS011;5576;50.008;10.596;2023-12-20T11:52:06;4.90;;;1.25;;
11046;SDS011;5576;50.008;10.596;2023-12-20T11:54:32;9.30;;;2.57;;
11046;SDS011;5576;50.008;10.596;2023-12-20T11:56:58;5.03;;;1.80;;
11046;SDS011;5576;50.008;10.596;2023-12-20T11:59:23;4.70;;;1.50;;
11046;SDS011;5576;50.008;10.596;2023-12-20T12:01:50;3.40;;;1.30;;
11046;SDS011;5576;50.008;10.596;2023-12-20T12:04:16;3.00;;;1.42;;
11046;SDS011;5576;50.008;10.596;2023-12-20T12:06:43;3.55;;;1.40;;
11046;SDS011;5576;50.008;10.596;2023-12-20T12:09:10;2.50;;;1.20;;
11046;SDS011;5576;50.008;10.596;2023-12-20T12:11:36;4.32;;;1.80;;
11046;SDS011;5576;50.008;10.596;2023-12-20T12:14:01;2.60;;;1.30;;
11046;SDS011;5576;50.008;10.596;2023-12-20T12:16:28;4.27;;;1.30;;
11046;SDS011;5576;50.008;10.596;2023-12-20T12:18:56;4.65;;;1.95;;
11046;SDS011;5576;50.008;10.596;2023-12-20T12:21:23;6.75;;;1.50;;
11046;SDS011;5576;50.008;10.596;2023-12-20T12:23:49;4.85;;;1.95;;
11046;SDS011;5576;50.008;10.596;2023-12-20T12:26:15;5.10;;;1.80;;
11046;SDS011;5576;50.008;10.596;2023-12-20T12:28:41;3.78;;;1.50;;
11046;SDS011;5576;50.008;10.596;2023-12-20T12:31:08;3.55;;;1.50;;
11046;SDS011;5576;50.008;10.596;2023-12-20T12:33:38;4.95;;;1.50;;
11046;SDS011;5576;50.008;10.596;2023-12-20T12:36:06;6.15;;;1.60;;
11046;SDS011;5576;50.008;10.596;2023-12-20T12:38:33;2.70;;;1.20;;
11046;SDS011;5576;50.008;10.596;2023-12-20T12:40:59;3.40;;;1.52;;
11046;SDS011;5576;50.008;10.596;2023-12-20T12:43:25;3.13;;;1.30;;
11046;SDS011;5576;50.008;10.596;2023-12-20T12:45:51;3.95;;;1.75;;
11046;SDS011;5576;50.008;10.596;2023-12-20T12:48:18;5.10;;;1.50;;
11046;SDS011;5576;50.008;10.596;2023-12-20T12:50:44;4.68;;;1.55;;
11046;SDS011;5576;50.008;10.596;2023-12-20T12:53:11;5.88;;;1.80;;
11046;SDS011;5576;50.008;10.596;2023-12-20T12:55:36;3.42;;;1.27;;
11046;SDS011;5576;50.008;10.596;2023-12-20T12:58:02;3.87;;;1.47;;
11046;SDS011;5576;50.008;10.596;2023-12-20T13:00:28;4.35;;;1.40;;
11046;SDS011;5576;50.008;10.596;2023-12-20T13:02:54;3.20;;;1.52;;
11046;SDS011;5576;50.008;10.596;2023-12-20T13:05:20;4.27;;;1.40;;
11046;SDS011;5576;50.008;10.596;2023-12-20T13:07:45;5.30;;;1.70;;
11046;SDS011;5576;50.008;10.596;2023-12-20T13:10:11;3.87;;;1.37;;
11046;SDS011;5576;50.008;10.596;2023-12-20T13:12:37;5.10;;;1.52;;
11046;SDS011;5576;50.008;10.596;2023-12-20T13:15:03;3.67;;;1.20;;
11046;SDS011;5576;50.008;10.596;2023-12-20T13:17:29;5.03;;;1.40;;
11046;SDS011;5576;50.008;10.596;2023-12-20T13:19:55;4.70;;;1.77;;
11046;SDS011;5576;50.008;10.596;2023-12-20T13:22:21;3.80;;;1.65;;
11046;SDS011;5576;50.008;10.596;2023-12-20T13:24:46;3.87;;;1.47;;
11046;SDS011;5576;50.008;10.596;2023-12-20T13:27:12;4.47;;;1.50;;
11046;SDS011;5576;50.008;10.596;2023-12-20T13:29:38;3.92;;;1.20;;
11046;SDS011;5576;50.008;10.596;2023-12-20T13:32:04;5.18;;;1.70;;
11046;SDS011;5576;50.008;10.596;2023-12-20T13:34:30;6.90;;;1.80;;
11046;SDS011;5576;50.008;10.596;2023-12-20T13:36:56;4.15;;;1.63;;
11046;SDS011;5576;50.008;10.596;2023-12-20T13:39:22;4.20;;;1.40;;
11046;SDS011;5576;50.008;10.596;2023-12-20T13:41:47;3.53;;;1.30;;
11046;SDS011;5576;50.008;10.596;2023-12-20T13:44:13;4.37;;;1.60;;
11046;SDS011;5576;50.008;10.596;2023-12-20T13:46:40;5.28;;;1.60;;
11046;SDS011;5576;50.008;10.596;2023-12-20T13:49:06;3.80;;;1.55;;
11046;SDS011;5576;50.008;10.596;2023-12-20T13:51:32;5.40;;;1.48;;
11046;SDS011;5576;50.008;10.596;2023-12-20T13:53:58;4.23;;;1.80;;
11046;SDS011;5576;50.008;10.596;2023-12-20T13:56:24;4.10;;;1.48;;
11046;SDS011;5576;50.008;10.596;2023-12-20T13:58:50;3.67;;;1.23;;
11046;SDS011;5576;50.008;10.596;2023-12-20T14:01:16;6.40;;;1.80;;
11046;SDS011;5576;50.008;10.596;2023-12-20T14:03:42;6.82;;;2.45;;
11046;SDS011;5576;50.008;10.596;2023-12-20T14:06:08;4.87;;;1.67;;
11046;SDS011;5576;50.008;10.596;2023-12-20T14:08:34;5.47;;;1.80;;
11046;SDS011;5576;50.008;10.596;2023-12-20T14:11:01;4.75;;;2.08;;
11046;SDS011;5576;50.008;10.596;2023-12-20T14:13:28;4.55;;;1.98;;
11046;SDS011;5576;50.008;10.596;2023-12-20T14:15:54;4.28;;;1.67;;
11046;SDS011;5576;50.008;10.596;2023-12-20T14:18:20;4.25;;;1.58;;
11046;SDS011;5576;50.008;10.596;2023-12-20T14:20:47;4.00;;;1.83;;
11046;SDS011;5576;50.008;10.596;2023-12-20T14:23:13;4.80;;;1.70;;
11046;SDS011;5576;50.008;10.596;2023-12-20T14:25:41;4.80;;;1.60;;
11046;SDS011;5576;50.008;10.596;2023-12-20T14:28:07;7.03;;;1.90;;
11046;SDS011;5576;50.008;10.596;2023-12-20T14:30:33;2.67;;;1.35;;
11046;SDS011;5576;50.008;10.596;2023-12-20T14:33:00;6.15;;;2.08;;
11046;SDS011;5576;50.008;10.596;2023-12-20T14:35:25;3.97;;;1.70;;
11046;SDS011;5576;50.008;10.596;2023-12-20T14:37:51;4.95;;;1.80;;
11046;SDS011;5576;50.008;10.596;2023-12-20T14:40:18;4.18;;;1.55;;
11046;SDS011;5576;50.008;10.596;2023-12-20T14:42:45;5.05;;;1.50;;
11046;SDS011;5576;50.008;10.596;2023-12-20T14:45:11;7.13;;;1.83;;
11046;SDS011;5576;50.008;10.596;2023-12-20T14:47:39;4.40;;;1.57;;
11046;SDS011;5576;50.008;10.596;2023-12-20T14:50:05;4.75;;;1.60;;
11046;SDS011;5576;50.008;10.596;2023-12-20T14:52:33;3.85;;;1.90;;